Time;durP1;ratioP1;P1;durP2;ratioP2;P2;SDS_P1;SDS_P2;PMS_P1;PMS_P2;Temp;Humidity;BMP_temperature;BMP_pressure;BME280_temperature;BME280_humidity;BME280_pressure;Samples;Min_cycle;Max_cycle;Signal;HPM_P1;HPM_P2
2022/01/24 00:01:38;;;;;;;21.20;13.88;;;;;;;1.27;53.94;102538.39;1648875;85;21536;-52
2022/01/24 00:04:05;;;;;;;21.42;12.70;;;;;;;1.28;53.93;102541.41;1652676;85;21025;-52
2022/01/24 00:06:32;;;;;;;16.42;12.95;;;;;;;1.28;53.74;102540.12;1697045;84;21050;-52
2022/01/24 00:09:00;;;;;;;17.55;12.50;;;;;;;1.29;53.89;102546.14;1656508;85;21147;-52
2022/01/24 00:11:39;;;;;;;17.25;11.83;;;;;;;1.30;53.81;102546.20;1636194;87;21586;-52
2022/01/24 00:17:09;;;;;;;16.23;12.28;;;;;;;1.30;53.82;102546.20;1592163;88;22746;-52
2022/01/24 00:27:47;;;;;;;16.75;12.45;;;;;;;1.28;53.67;102559.76;1686859;83;21017;-52
2022/01/24 00:30:15;;;;;;;15.13;10.82;;;;;;;1.27;53.68;102564.03;1648568;85;21053;-52
2022/01/24 00:32:41;;;;;;;16.27;12.35;;;;;;;1.28;53.72;102565.77;1633523;86;21125;-52
2022/01/24 00:35:09;;;;;;;16.90;11.75;;;;;;;1.28;53.90;102558.48;1633684;86;21045;-52
2022/01/24 00:37:37;;;;;;;17.10;12.47;;;;;;;1.29;54.01;102566.27;1627409;87;21129;-52
2022/01/24 00:40:05;;;;;;;16.75;12.35;;;;;;;1.29;53.83;102572.67;1657384;85;21536;-52
2022/01/24 00:42:41;;;;;;;15.98;11.55;;;;;;;1.28;54.01;102567.05;1707461;83;21021;-52
2022/01/24 00:47:44;;;;;;;15.78;11.85;;;;;;;1.29;54.08;102572.67;1709716;83;21138;-53
2022/01/24 00:55:23;;;;;;;17.48;12.05;;;;;;;1.28;54.45;102563.21;1747490;80;21008;-52
2022/01/24 00:57:50;;;;;;;15.85;11.55;;;;;;;1.27;54.45;102569.16;1736821;81;21099;-52
2022/01/24 01:00:17;;;;;;;16.70;12.23;;;;;;;1.23;54.50;102572.41;1748037;80;21034;-52
2022/01/24 01:02:45;;;;;;;16.27;11.88;;;;;;;1.22;54.86;102568.47;1757563;80;21572;-52
2022/01/24 01:18:04;;;;;;;13.98;11.48;;;;;;;1.20;55.39;102584.19;1762078;80;21031;-52
2022/01/24 01:18:42;;;;;;;15.13;11.50;;;;;;;1.36;55.84;102574.68;1724247;81;21529;-52
2022/01/24 01:23:49;;;;;;;15.50;11.90;;;;;;;1.44;55.80;102573.33;1703413;83;21014;-52
2022/01/24 01:29:12;;;;;;;19.48;11.30;;;;;;;1.46;55.85;102579.41;1679674;84;21137;-52
2022/01/24 01:57:58;;;;;;;21.93;14.87;;;;;;;1.36;56.29;102578.95;1586071;89;21095;-52
2022/01/24 02:00:24;;;;;;;22.50;14.73;;;;;;;1.36;56.36;102592.63;1596230;87;21391;-52
2022/01/24 02:02:51;;;;;;;25.27;16.48;;;;;;;1.35;56.44;102578.08;1583260;88;21108;-52
2022/01/24 02:05:17;;;;;;;28.47;16.75;;;;;;;1.36;56.46;102584.94;1598582;87;21047;-52
2022/01/24 02:07:50;;;;;;;26.17;15.95;;;;;;;1.38;56.54;102585.03;1603172;87;21082;-52
2022/01/24 02:10:18;;;;;;;25.08;15.93;;;;;;;1.38;56.41;102587.16;1600896;87;21027;-52
2022/01/24 02:12:46;;;;;;;32.73;18.40;;;;;;;1.37;56.43;102582.86;1602663;87;21407;-52
2022/01/24 02:15:18;;;;;;;29.57;17.55;;;;;;;1.35;56.39;102583.59;1601192;89;21122;-52
2022/01/24 02:20:37;;;;;;;29.65;17.23;;;;;;;1.34;56.47;102581.43;1566978;89;21047;-52
2022/01/24 02:22:51;;;;;;;30.82;17.85;;;;;;;1.35;56.31;102583.20;1567056;91;21079;-52
2022/01/24 02:25:25;;;;;;;32.63;19.17;;;;;;;1.34;56.49;102592.13;1573159;90;21124;-52
2022/01/24 02:27:53;;;;;;;31.42;19.42;;;;;;;1.35;56.44;102595.14;1571109;91;21016;-52
2022/01/24 02:32:58;;;;;;;28.35;19.25;;;;;;;1.35;56.52;102588.33;1622835;86;21108;-52
2022/01/24 02:35:25;;;;;;;30.85;18.70;;;;;;;1.40;56.41;102582.98;1625321;86;22649;-53
2022/01/24 02:37:51;;;;;;;34.27;20.75;;;;;;;1.43;56.47;102583.13;1631429;86;21675;-52
2022/01/24 02:40:20;;;;;;;30.95;18.67;;;;;;;1.44;56.46;102592.56;1613890;88;21090;-52
2022/01/24 02:48:26;;;;;;;28.87;18.40;;;;;;;1.50;56.32;102598.39;1612944;88;21046;-52
2022/01/24 02:53:42;;;;;;;30.77;18.67;;;;;;;1.50;56.38;102606.98;1569994;90;21582;-52
2022/01/24 02:56:08;;;;;;;29.00;18.23;;;;;;;1.51;56.37;102606.15;1630507;86;21572;-52
2022/01/24 02:58:36;;;;;;;25.85;17.77;;;;;;;1.52;56.26;102598.94;1688743;84;21091;-52
2022/01/24 03:01:07;;;;;;;30.43;18.05;;;;;;;1.53;56.27;102606.20;1685538;84;21081;-52
2022/01/24 03:03:36;;;;;;;26.13;17.10;;;;;;;1.53;56.31;102608.77;1690200;83;21104;-52
2022/01/24 03:06:05;;;;;;;26.20;17.10;;;;;;;1.54;56.37;102611.43;1685823;83;21081;-52
2022/01/24 03:08:32;;;;;;;23.32;16.65;;;;;;;1.58;56.41;102608.19;1694874;83;21003;-52
2022/01/24 03:11:00;;;;;;;25.48;17.45;;;;;;;1.62;56.43;102611.36;1672500;83;21034;-52
2022/01/24 03:15:57;;;;;;;27.05;17.12;;;;;;;1.67;56.45;102617.09;1680386;84;21051;-52
2022/01/24 03:18:23;;;;;;;20.08;15.53;;;;;;;1.68;56.53;102620.12;1682827;83;21101;-52
2022/01/24 03:20:50;;;;;;;22.55;15.03;;;;;;;1.71;56.51;102616.42;1682999;84;21009;-52
2022/01/24 03:23:18;;;;;;;21.48;15.18;;;;;;;1.69;56.29;102618.04;1692901;84;21011;-53
2022/01/24 03:25:45;;;;;;;22.98;15.10;;;;;;;1.72;56.35;102620.72;1684931;83;21619;-52
2022/01/24 03:28:13;;;;;;;22.62;16.45;;;;;;;1.68;56.23;102618.83;1682634;83;21561;-52
2022/01/24 03:30:40;;;;;;;22.27;15.28;;;;;;;1.69;56.34;102615.47;1697580;83;21042;-52
2022/01/24 03:33:07;;;;;;;20.48;14.28;;;;;;;1.73;56.22;102617.36;1698467;83;21082;-52
2022/01/24 03:35:34;;;;;;;19.85;13.93;;;;;;;1.75;56.39;102617.02;1695052;83;21098;-52
2022/01/24 03:38:02;;;;;;;23.15;15.65;;;;;;;1.77;56.21;102622.70;1685659;83;21053;-53
2022/01/24 03:40:30;;;;;;;19.90;14.90;;;;;;;1.79;56.16;102620.19;1690299;83;21028;-52
2022/01/24 03:42:56;;;;;;;24.27;15.40;;;;;;;1.80;56.26;102632.19;1685459;83;21496;-52
2022/01/24 03:45:38;;;;;;;19.62;14.93;;;;;;;1.79;56.05;102627.89;1694571;83;21129;-52
2022/01/24 03:48:06;;;;;;;20.77;15.65;;;;;;;1.78;55.66;102627.00;1701016;83;21124;-52
2022/01/24 03:50:25;;;;;;;20.70;13.85;;;;;;;1.76;55.92;102626.06;1726724;81;21514;-52
2022/01/24 03:52:51;;;;;;;21.50;14.87;;;;;;;1.76;55.59;102629.02;1765271;80;21049;-52
2022/01/24 03:55:18;;;;;;;18.62;13.48;;;;;;;1.74;55.49;102630.64;1761660;80;20971;-52
2022/01/24 03:57:44;;;;;;;22.07;14.23;;;;;;;1.74;55.48;102629.36;1763874;80;20967;-52
2022/01/24 04:00:12;;;;;;;18.23;13.32;;;;;;;1.75;55.50;102626.00;1740057;81;21529;-52
2022/01/24 04:02:42;;;;;;;19.37;13.93;;;;;;;1.76;55.45;102639.29;1773290;80;21554;-52
2022/01/24 04:05:09;;;;;;;19.50;13.48;;;;;;;1.76;55.25;102640.58;1765799;80;21533;-53
2022/01/24 04:07:36;;;;;;;19.40;13.60;;;;;;;1.75;55.31;102644.85;1763487;80;21040;-52
2022/01/24 04:10:06;;;;;;;19.52;13.00;;;;;;;1.76;55.16;102648.27;1762380;80;21042;-52
2022/01/24 04:12:35;;;;;;;21.62;13.93;;;;;;;1.75;55.29;102651.66;1732727;81;21022;-52
2022/01/24 04:17:41;;;;;;;18.30;13.85;;;;;;;1.81;55.31;102659.63;1757128;80;21083;-52
2022/01/24 04:22:54;;;;;;;18.50;13.15;;;;;;;1.85;55.12;102655.11;1749643;80;20123;-52
2022/01/24 04:25:23;;;;;;;18.70;12.73;;;;;;;1.84;54.90;102648.20;1761209;80;21586;-52
2022/01/24 04:27:48;;;;;;;19.23;13.18;;;;;;;1.84;55.12;102652.05;1757004;80;21073;-52
2022/01/24 04:30:14;;;;;;;20.25;12.95;;;;;;;1.84;54.53;102650.37;1761475;80;20986;-52
2022/01/24 04:32:41;;;;;;;17.52;13.10;;;;;;;1.84;54.54;102659.75;1763943;80;21012;-52
2022/01/24 04:35:08;;;;;;;19.85;12.70;;;;;;;1.82;54.41;102658.80;1767056;80;20990;-53
2022/01/24 04:37:34;;;;;;;19.15;13.60;;;;;;;1.81;54.29;102667.33;1766677;80;21003;-52
2022/01/24 04:40:01;;;;;;;17.50;12.05;;;;;;;1.80;54.54;102662.59;1740002;80;21021;-52
2022/01/24 04:55:05;;;;;;;16.62;12.40;;;;;;;1.84;54.14;102685.42;1615179;86;21042;-52
2022/01/24 04:57:32;;;;;;;16.77;11.50;;;;;;;1.80;54.03;102680.95;1623037;86;21033;-52
2022/01/24 05:00:00;;;;;;;18.73;12.07;;;;;;;1.80;53.99;102683.53;1624627;87;21734;-52
2022/01/24 05:02:27;;;;;;;16.80;13.22;;;;;;;1.80;54.07;102680.95;1623163;88;21042;-52
2022/01/24 05:04:56;;;;;;;18.45;13.03;;;;;;;1.80;54.04;102686.98;1623226;87;21604;-52
2022/01/24 05:07:23;;;;;;;18.25;12.95;;;;;;;1.80;54.12;102700.20;1628818;86;21076;-52
2022/01/24 05:10:07;;;;;;;16.85;12.23;;;;;;;1.81;54.12;102695.56;1623507;87;21108;-53
2022/01/24 05:21:08;;;;;;;16.00;12.23;;;;;;;1.81;54.17;102703.27;1623913;87;21054;-52
2022/01/24 05:26:01;;;;;;;16.87;12.43;;;;;;;1.81;53.97;102710.97;1586631;89;21104;-52
2022/01/24 05:28:28;;;;;;;18.00;12.45;;;;;;;1.77;53.79;102725.75;1588027;89;21110;-52
2022/01/24 05:30:54;;;;;;;18.37;13.20;;;;;;;1.74;53.61;102725.20;1587859;89;21100;-52
2022/01/24 05:33:21;;;;;;;16.42;11.83;;;;;;;1.72;53.73;102727.22;1588912;90;21612;-52
2022/01/24 05:35:48;;;;;;;17.55;12.28;;;;;;;1.72;53.69;102734.52;1592281;89;21549;-52
2022/01/24 05:38:15;;;;;;;16.95;12.15;;;;;;;1.72;53.62;102741.33;1592244;89;21620;-52
2022/01/24 05:40:41;;;;;;;17.20;13.05;;;;;;;1.69;53.79;102736.08;1592777;88;22663;-52
2022/01/24 05:43:08;;;;;;;15.30;11.53;;;;;;;1.68;53.38;102739.44;1607112;85;21585;-53
2022/01/24 05:45:34;;;;;;;15.18;11.08;;;;;;;1.69;53.38;102759.17;1674048;85;21584;-52
2022/01/24 05:48:01;;;;;;;17.32;11.83;;;;;;;1.67;53.30;102765.92;1668512;85;21022;-52
2022/01/24 05:50:28;;;;;;;15.93;11.63;;;;;;;1.64;53.26;102761.13;1667596;85;21081;-52
2022/01/24 05:52:54;;;;;;;17.05;11.40;;;;;;;1.64;53.22;102752.15;1672614;84;21069;-52
2022/01/24 05:55:21;;;;;;;14.50;11.30;;;;;;;1.64;52.97;102756.00;1674231;85;20986;-52
2022/01/24 05:57:47;;;;;;;19.52;12.23;;;;;;;1.68;52.72;102762.53;1676719;84;21156;-52
2022/01/24 06:00:14;;;;;;;15.60;11.40;;;;;;;1.65;52.87;102764.16;1672763;84;21026;-52
2022/01/24 06:02:41;;;;;;;16.85;12.00;;;;;;;1.67;52.71;102768.49;1675575;85;21156;-52
2022/01/24 06:05:08;;;;;;;15.53;10.75;;;;;;;1.66;52.95;102762.47;1667490;84;21022;-53
2022/01/24 06:07:35;;;;;;;19.40;11.93;;;;;;;1.67;52.37;102765.92;1678763;84;21458;-52
2022/01/24 06:10:03;;;;;;;16.12;10.58;;;;;;;1.67;52.60;102765.92;1676699;84;21069;-52
2022/01/24 06:12:30;;;;;;;13.00;9.78;;;;;;;1.68;52.67;102767.67;1687334;82;21069;-53
2022/01/24 06:14:56;;;;;;;13.50;10.55;;;;;;;1.67;52.50;102770.62;1759559;80;21014;-52
2022/01/24 06:17:23;;;;;;;13.50;10.75;;;;;;;1.69;52.37;102770.72;1769146;80;20979;-52
2022/01/24 06:19:49;;;;;;;14.80;10.80;;;;;;;1.69;52.39;102780.56;1765670;80;20983;-52
2022/01/24 06:22:16;;;;;;;14.38;10.78;;;;;;;1.68;51.72;102773.69;1768193;80;21058;-51
2022/01/24 06:24:42;;;;;;;14.73;11.30;;;;;;;1.69;52.34;102774.57;1762259;80;20974;-52
2022/01/24 06:27:08;;;;;;;14.80;11.25;;;;;;;1.71;52.14;102775.52;1769234;80;21002;-52
2022/01/24 06:29:35;;;;;;;14.18;10.38;;;;;;;1.70;51.96;102778.87;1775922;80;21007;-51
2022/01/24 06:32:01;;;;;;;16.25;11.43;;;;;;;1.68;52.35;102780.50;1762140;80;21023;-51
2022/01/24 06:34:28;;;;;;;18.27;11.65;;;;;;;1.67;52.43;102775.77;1762883;80;21002;-51
2022/01/24 06:36:54;;;;;;;14.70;10.40;;;;;;;1.67;52.09;102780.04;1772256;80;21050;-51
2022/01/24 06:39:21;;;;;;;17.07;10.90;;;;;;;1.63;52.35;102787.58;1765789;80;20963;-53
2022/01/24 06:42:08;;;;;;;15.98;11.10;;;;;;;1.58;52.25;102781.38;1771114;80;21034;-51
2022/01/24 06:44:21;;;;;;;14.35;10.28;;;;;;;1.57;52.42;102783.45;1765274;80;21005;-51
2022/01/24 06:46:47;;;;;;;13.72;9.73;;;;;;;1.58;52.58;102791.64;1756574;80;21078;-51
2022/01/24 06:49:14;;;;;;;14.28;10.48;;;;;;;1.62;52.36;102793.93;1752361;80;20991;-52
2022/01/24 06:51:41;;;;;;;16.55;11.05;;;;;;;1.65;52.31;102796.23;1747857;80;21085;-52
2022/01/24 06:54:07;;;;;;;13.45;9.73;;;;;;;1.65;52.54;102793.66;1761620;80;21085;-51
2022/01/24 06:56:58;;;;;;;13.50;9.88;;;;;;;1.63;52.53;102792.71;1754845;80;20998;-51
2022/01/24 06:59:25;;;;;;;13.95;10.05;;;;;;;1.65;52.69;102789.81;1759770;80;21047;-51
2022/01/24 07:01:52;;;;;;;14.70;10.05;;;;;;;1.69;52.43;102784.41;1751301;80;21022;-51
2022/01/24 07:04:19;;;;;;;13.43;10.38;;;;;;;1.72;52.28;102779.83;1749164;80;21014;-51
2022/01/24 07:06:46;;;;;;;14.93;8.90;;;;;;;1.70;52.33;102784.02;1764001;80;21014;-51
2022/01/24 07:09:13;;;;;;;13.03;9.10;;;;;;;1.68;52.24;102780.10;1747343;80;21512;-51
2022/01/24 07:11:41;;;;;;;14.18;10.23;;;;;;;1.71;52.37;102778.09;1763021;80;21018;-51
2022/01/24 07:14:11;;;;;;;13.53;9.68;;;;;;;1.73;52.19;102781.20;1776343;80;21048;-51
2022/01/24 07:17:00;;;;;;;13.10;8.58;;;;;;;1.74;52.13;102775.64;1766074;80;21002;-54
2022/01/24 07:19:04;;;;;;;11.50;9.23;;;;;;;1.75;52.19;102775.74;1762870;80;21047;-53
2022/01/24 07:21:31;;;;;;;13.10;9.25;;;;;;;1.79;52.11;102776.75;1755554;80;21058;-51
2022/01/24 07:23:57;;;;;;;12.90;9.10;;;;;;;1.83;52.15;102775.69;1766164;80;21451;-52
2022/01/24 07:26:24;;;;;;;14.68;8.80;;;;;;;1.86;52.11;102794.17;1749555;80;21542;-52
2022/01/24 07:28:50;;;;;;;13.13;9.48;;;;;;;1.87;51.52;102774.12;1760311;80;21037;-51
2022/01/24 07:31:16;;;;;;;11.28;8.45;;;;;;;1.86;51.74;102788.64;1761215;80;20991;-51
2022/01/24 07:33:43;;;;;;;12.98;8.73;;;;;;;1.86;51.68;102777.48;1762022;80;21034;-51
2022/01/24 07:36:09;;;;;;;11.88;8.93;;;;;;;1.85;51.62;102776.63;1755012;80;21608;-51
2022/01/24 07:38:36;;;;;;;13.03;9.20;;;;;;;1.88;51.88;102787.42;1751305;80;21523;-51
2022/01/24 07:41:02;;;;;;;11.12;9.23;;;;;;;1.90;51.60;102784.52;1756857;80;21535;-51
2022/01/24 07:43:29;;;;;;;14.35;8.55;;;;;;;1.89;51.30;102800.74;1748809;80;21053;-51
2022/01/24 07:45:55;;;;;;;13.50;8.68;;;;;;;1.87;51.46;102788.24;1751918;80;21072;-52
2022/01/24 07:48:22;;;;;;;10.10;8.05;;;;;;;1.86;51.30;102783.91;1761849;80;21026;-51
2022/01/24 07:50:51;;;;;;;10.68;8.30;;;;;;;1.88;51.50;102798.97;1756823;80;20997;-51
2022/01/24 07:53:17;;;;;;;9.80;7.20;;;;;;;1.91;51.64;102785.00;1758514;80;21585;-51
2022/01/24 07:55:45;;;;;;;10.45;7.90;;;;;;;1.94;51.30;102800.56;1761572;80;21027;-51
2022/01/24 07:58:11;;;;;;;11.50;8.38;;;;;;;1.93;50.81;102798.79;1759521;80;21534;-51
2022/01/24 08:00:38;;;;;;;10.85;8.45;;;;;;;1.90;51.17;102798.63;1772528;80;21022;-52
2022/01/24 08:03:05;;;;;;;14.53;8.20;;;;;;;1.86;51.17;102801.47;1756364;80;21020;-51
2022/01/24 08:05:32;;;;;;;11.57;8.68;;;;;;;1.88;51.32;102802.42;1771024;80;21007;-51
2022/01/24 08:08:00;;;;;;;10.80;8.35;;;;;;;1.90;51.36;102801.20;1771625;80;21097;-51
2022/01/24 08:10:27;;;;;;;10.35;8.03;;;;;;;1.92;51.11;102795.73;1760478;80;21669;-51
2022/01/24 08:12:53;;;;;;;11.95;8.30;;;;;;;1.96;51.18;102795.95;1771863;80;21007;-51
2022/01/24 08:15:20;;;;;;;11.03;8.23;;;;;;;1.97;50.88;102795.55;1752519;80;21033;-52
2022/01/24 08:17:47;;;;;;;12.50;8.20;;;;;;;1.97;50.78;102800.69;1753328;80;21065;-52
2022/01/24 08:20:15;;;;;;;10.13;7.50;;;;;;;1.97;50.59;102792.98;1754603;80;21034;-51
2022/01/24 08:22:42;;;;;;;9.55;7.47;;;;;;;1.95;50.48;102791.64;1752550;80;21003;-51
2022/01/24 08:25:09;;;;;;;10.38;8.10;;;;;;;1.97;50.75;102785.28;1764224;80;20978;-51
2022/01/24 08:27:36;;;;;;;10.00;7.28;;;;;;;2.00;51.08;102791.42;1764984;80;21042;-54
2022/01/24 08:30:10;;;;;;;10.78;8.10;;;;;;;2.03;50.25;102788.12;1757707;81;21070;-52
2022/01/24 08:32:38;;;;;;;9.48;7.05;;;;;;;2.03;50.55;102794.54;1669713;84;21608;-51
2022/01/24 08:35:06;;;;;;;7.97;7.17;;;;;;;2.04;50.36;102791.18;1674889;85;21053;-51
2022/01/24 08:37:35;;;;;;;11.40;7.42;;;;;;;2.09;50.19;102793.53;1668539;85;21053;-51
2022/01/24 08:40:02;;;;;;;10.38;7.05;;;;;;;2.15;50.61;102800.22;1678319;84;21039;-52
2022/01/24 08:42:37;;;;;;;10.48;7.33;;;;;;;2.14;49.76;102789.49;1666257;84;21108;-51
2022/01/24 08:50:05;;;;;;;10.00;6.92;;;;;;;2.11;49.66;102781.64;1653779;85;22341;-51
2022/01/24 08:52:32;;;;;;;8.18;6.45;;;;;;;2.11;49.71;102785.48;1654081;85;21627;-52
2022/01/24 08:54:58;;;;;;;10.20;6.83;;;;;;;2.14;49.99;102777.94;1641626;85;21004;-51
2022/01/24 08:57:25;;;;;;;8.95;6.97;;;;;;;2.16;49.72;102786.59;1648873;86;21014;-51
2022/01/24 08:59:53;;;;;;;10.38;7.30;;;;;;;2.15;49.78;102779.67;1655197;85;21134;-51
2022/01/24 09:02:21;;;;;;;7.60;6.72;;;;;;;2.17;49.64;102784.47;1647930;85;21066;-51
2022/01/24 09:04:47;;;;;;;11.43;7.42;;;;;;;2.18;49.75;102776.86;1648461;85;21668;-51
2022/01/24 09:07:16;;;;;;;7.45;6.60;;;;;;;2.18;49.75;102793.95;1647977;85;21102;-52
2022/01/24 09:09:44;;;;;;;9.15;6.62;;;;;;;2.22;49.88;102794.56;1673012;84;21031;-52
2022/01/24 09:12:12;;;;;;;8.50;6.90;;;;;;;2.24;49.75;102803.21;1669020;84;21134;-51
2022/01/24 09:14:43;;;;;;;7.80;6.62;;;;;;;2.26;49.61;102793.88;1663475;86;21106;-51
2022/01/24 09:17:11;;;;;;;8.15;7.30;;;;;;;2.29;49.43;102805.56;1641994;86;21038;-51
2022/01/24 09:19:38;;;;;;;10.43;6.85;;;;;;;2.32;49.55;102796.72;1662160;84;21067;-51
2022/01/24 09:22:05;;;;;;;10.20;7.70;;;;;;;2.34;49.49;102795.98;1642281;85;21098;-52
2022/01/24 09:24:32;;;;;;;10.78;7.40;;;;;;;2.36;48.95;102784.48;1645628;86;21116;-51
2022/01/24 09:26:59;;;;;;;10.32;7.05;;;;;;;2.36;49.10;102788.34;1648844;85;21092;-52
2022/01/24 09:29:26;;;;;;;9.80;6.78;;;;;;;2.34;49.17;102796.37;1648618;85;21024;-51
2022/01/24 09:31:52;;;;;;;7.72;6.78;;;;;;;2.36;48.85;102789.22;1623571;86;21208;-52
2022/01/24 09:34:20;;;;;;;11.10;7.53;;;;;;;2.38;49.03;102790.56;1656189;85;21084;-51
2022/01/24 09:36:50;;;;;;;8.23;6.97;;;;;;;2.41;49.00;102790.28;1657965;85;21219;-51
2022/01/24 09:39:17;;;;;;;9.35;7.28;;;;;;;2.43;48.95;102787.80;1656246;85;20995;-52
2022/01/24 09:41:45;;;;;;;8.80;6.78;;;;;;;2.47;48.76;102788.41;1653967;85;21161;-51
2022/01/24 09:44:11;;;;;;;7.55;6.00;;;;;;;2.46;48.32;102791.77;1651199;85;21538;-51
2022/01/24 09:46:40;;;;;;;6.67;5.55;;;;;;;2.44;48.45;102793.39;1611748;86;21037;-51
2022/01/24 09:49:06;;;;;;;6.28;5.30;;;;;;;2.45;48.27;102791.31;1622818;86;21081;-51
2022/01/24 09:51:33;;;;;;;13.70;5.67;;;;;;;2.48;48.47;102797.86;1694546;83;21146;-51
2022/01/24 09:54:04;;;;;;;10.03;5.50;;;;;;;2.49;48.10;102788.92;1760237;80;21082;-51
2022/01/24 09:56:31;;;;;;;12.55;6.35;;;;;;;2.51;48.14;102800.57;1754026;80;21007;-51
2022/01/24 09:58:58;;;;;;;7.83;5.80;;;;;;;2.53;48.08;102791.23;1765065;80;21026;-52
2022/01/24 10:01:24;;;;;;;7.53;5.80;;;;;;;2.53;47.83;102787.38;1757093;81;20997;-51
2022/01/24 10:04:15;;;;;;;7.70;5.60;;;;;;;2.54;48.05;102796.83;1754204;80;20991;-51
2022/01/24 10:07:06;;;;;;;7.00;5.60;;;;;;;2.56;48.10;102799.06;1697620;83;21007;-51
2022/01/24 10:09:39;;;;;;;6.97;5.30;;;;;;;2.59;48.16;102796.64;1697089;83;21561;-51
2022/01/24 10:18:05;;;;;;;6.90;5.33;;;;;;;2.54;47.91;102800.69;1679434;84;21017;-52
2022/01/24 10:20:36;;;;;;;7.65;5.97;;;;;;;2.54;47.91;102805.83;1637528;86;21124;-52
2022/01/24 10:23:25;;;;;;;8.35;5.85;;;;;;;2.52;48.13;102798.45;1636171;86;21113;-51
2022/01/24 10:26:02;;;;;;;8.23;6.03;;;;;;;2.48;48.47;102805.56;1634427;87;21120;-51
2022/01/24 10:28:39;;;;;;;7.22;5.50;;;;;;;2.45;48.60;102800.31;1644916;86;21164;-51
2022/01/24 10:31:12;;;;;;;7.83;5.60;;;;;;;2.40;48.64;102796.64;1638599;86;21076;-51
2022/01/24 10:34:04;;;;;;;7.17;5.03;;;;;;;2.39;48.63;102802.61;1654710;86;21035;-51
2022/01/24 10:36:47;;;;;;;6.90;4.65;;;;;;;2.42;48.12;102792.45;1643908;86;21058;-52
2022/01/24 10:45:38;;;;;;;6.67;5.17;;;;;;;2.53;47.86;102797.66;1648467;86;21100;-52
2022/01/24 10:48:04;;;;;;;5.28;4.60;;;;;;;2.57;48.38;102790.55;1695050;83;21037;-53
2022/01/24 10:50:31;;;;;;;6.45;4.97;;;;;;;2.62;48.77;102804.46;1700700;83;21066;-51
2022/01/24 10:52:58;;;;;;;6.87;5.53;;;;;;;2.62;48.87;102801.89;1703701;83;21060;-52
2022/01/24 10:55:28;;;;;;;8.75;6.17;;;;;;;2.58;49.59;102805.58;1703809;83;21119;-52
2022/01/24 10:58:08;;;;;;;8.05;6.17;;;;;;;2.56;49.92;102799.06;1700630;83;21164;-52
2022/01/24 11:00:36;;;;;;;7.85;5.92;;;;;;;2.53;50.11;102801.91;1697469;83;21085;-52
2022/01/24 11:03:03;;;;;;;13.13;6.80;;;;;;;2.49;50.81;102803.48;1696611;83;21148;-52
2022/01/24 11:05:36;;;;;;;7.28;5.83;;;;;;;2.45;51.07;102797.74;1700628;83;21124;-51
2022/01/24 11:08:15;;;;;;;6.65;5.40;;;;;;;2.42;51.63;102809.16;1693889;83;21075;-51
2022/01/24 11:10:50;;;;;;;7.08;5.65;;;;;;;2.37;51.93;102795.25;1687413;83;21057;-52
2022/01/24 11:13:24;;;;;;;6.72;5.30;;;;;;;2.34;52.50;102798.95;1707086;83;21218;-51
2022/01/24 11:15:55;;;;;;;11.55;6.72;;;;;;;2.38;52.51;102797.88;1688290;82;21037;-52
2022/01/24 11:18:18;;;;;;;10.05;7.53;;;;;;;2.43;52.40;102792.94;1762600;80;21058;-51
2022/01/24 11:20:46;;;;;;;8.40;6.50;;;;;;;2.47;52.05;102796.97;1762119;80;21039;-52
2022/01/24 11:23:13;;;;;;;7.90;6.58;;;;;;;2.49;51.79;102793.20;1763385;80;21057;-52
2022/01/24 11:25:43;;;;;;;7.83;6.12;;;;;;;2.48;51.45;102797.45;1754568;80;21045;-52
2022/01/24 11:28:10;;;;;;;9.70;7.03;;;;;;;2.44;51.46;102786.58;1755249;80;21005;-51
2022/01/24 11:31:00;;;;;;;10.35;6.70;;;;;;;2.40;51.63;102794.08;1766059;80;20999;-52
2022/01/24 11:33:38;;;;;;;7.80;6.45;;;;;;;2.38;51.89;102802.13;1777325;80;21042;-51
2022/01/24 11:36:07;;;;;;;8.73;6.90;;;;;;;2.37;52.05;102806.81;1783974;80;21033;-52
2022/01/24 11:38:43;;;;;;;9.25;7.50;;;;;;;2.32;52.84;102798.89;1750512;81;21011;-51
2022/01/24 11:41:27;;;;;;;9.43;8.20;;;;;;;2.09;53.94;102802.52;1757785;80;21021;-52
2022/01/24 11:43:56;;;;;;;9.70;7.55;;;;;;;2.02;54.46;102794.09;1740097;80;21079;-52
2022/01/24 11:46:48;;;;;;;10.00;7.85;;;;;;;1.95;54.50;102798.45;1761643;80;21009;-52
2022/01/24 11:49:33;;;;;;;9.38;7.83;;;;;;;1.87;54.68;102799.40;1777883;80;21014;-51
2022/01/24 11:52:14;;;;;;;12.00;8.78;;;;;;;1.85;55.19;102793.71;1765012;79;21538;-52
2022/01/24 11:54:58;;;;;;;9.33;7.42;;;;;;;1.86;55.68;102794.17;1768066;80;21021;-52
2022/01/24 11:57:41;;;;;;;11.80;8.23;;;;;;;1.89;55.80;102790.47;1760138;80;21013;-52
2022/01/24 12:00:14;;;;;;;9.65;7.42;;;;;;;1.91;56.05;102794.88;1762052;80;21493;-52
2022/01/24 12:02:56;;;;;;;10.18;8.00;;;;;;;1.86;56.20;102791.20;1758160;80;21042;-52
2022/01/24 12:05:31;;;;;;;8.50;7.45;;;;;;;1.81;56.01;102791.81;1763788;81;21013;-52
2022/01/24 12:08:06;;;;;;;9.35;7.37;;;;;;;1.72;55.72;102792.27;1707633;82;21027;-52
2022/01/24 12:10:37;;;;;;;9.38;7.62;;;;;;;1.88;55.45;102795.12;1689021;82;21038;-52
2022/01/24 12:15:56;;;;;;;8.40;6.45;;;;;;;1.92;55.61;102791.88;1643990;85;21051;-52
2022/01/24 12:18:33;;;;;;;12.07;7.37;;;;;;;1.96;55.85;102793.81;1610401;87;21031;-52
2022/01/24 12:21:10;;;;;;;8.38;7.35;;;;;;;1.99;56.08;102804.20;1589462;89;21115;-52
2022/01/24 12:23:51;;;;;;;10.20;7.05;;;;;;;2.00;56.22;102795.70;1570881;89;21077;-52
2022/01/24 12:26:22;;;;;;;7.50;6.47;;;;;;;2.02;55.86;102799.22;1490877;95;21597;-52
2022/01/24 12:28:53;;;;;;;8.85;6.40;;;;;;;2.02;55.51;102799.22;1496361;95;21081;-52
2022/01/24 12:31:35;;;;;;;8.18;6.87;;;;;;;1.98;54.46;102794.75;1417387;100;21167;-52
2022/01/24 12:34:14;;;;;;;9.05;6.58;;;;;;;1.92;54.72;102797.02;1423084;100;21134;-52
2022/01/24 12:36:47;;;;;;;8.45;6.50;;;;;;;1.88;54.54;102806.27;1424065;99;21160;-52
2022/01/24 12:39:23;;;;;;;7.33;6.10;;;;;;;1.89;54.91;102799.06;1434036;99;21587;-52
2022/01/24 12:42:00;;;;;;;8.63;6.00;;;;;;;1.91;54.89;102805.55;1431066;99;21624;-52
2022/01/24 12:47:46;;;;;;;7.25;6.00;;;;;;;1.91;54.90;102807.71;1308206;109;21180;-52
2022/01/24 12:57:47;;;;;;;7.37;5.75;;;;;;;1.86;54.37;102818.55;1304539;109;21732;-52
2022/01/24 13:00:18;;;;;;;6.55;5.85;;;;;;;1.80;54.16;102810.58;1304381;109;21301;-53
2022/01/24 13:02:44;;;;;;;6.95;5.67;;;;;;;1.81;54.13;102816.20;1304439;109;21245;-53
2022/01/24 13:05:21;;;;;;;8.25;5.80;;;;;;;1.81;54.35;102818.77;1308798;109;21243;-52
2022/01/24 13:07:54;;;;;;;7.60;6.17;;;;;;;1.82;54.61;102817.94;1307512;108;21161;-53
2022/01/24 13:10:23;;;;;;;8.98;6.90;;;;;;;1.78;54.70;102811.80;1304538;108;21777;-51
2022/01/24 13:22:53;;;;;;;8.73;6.78;;;;;;;1.46;56.58;102820.96;1340856;105;21722;-52
2022/01/24 13:25:23;;;;;;;14.23;7.97;;;;;;;1.38;56.66;102819.29;1353343;105;21207;-52
2022/01/24 13:27:55;;;;;;;9.00;6.78;;;;;;;1.28;56.11;102821.33;1330608;105;21882;-51
2022/01/24 13:30:35;;;;;;;9.30;7.97;;;;;;;1.20;55.66;102818.41;1346312;105;21259;-51
2022/01/24 13:33:11;;;;;;;10.43;8.68;;;;;;;1.14;55.65;102827.08;1352400;105;21178;-51
2022/01/24 13:35:44;;;;;;;13.80;10.00;;;;;;;1.08;56.15;102833.20;1342816;105;21296;-51
2022/01/24 13:38:14;;;;;;;14.83;11.63;;;;;;;1.03;56.21;102837.20;1356693;103;21172;-52
2022/01/24 13:40:56;;;;;;;12.68;9.00;;;;;;;1.04;56.26;102838.98;1376204;96;21109;-53
2022/01/24 13:44:02;;;;;;;12.18;7.67;;;;;;;1.03;56.32;102832.07;1497172;93;21077;-52
2022/01/24 13:46:38;;;;;;;13.72;9.08;;;;;;;1.01;56.37;102840.09;1507937;95;21140;-53
2022/01/24 13:49:16;;;;;;;13.60;7.55;;;;;;;0.99;56.94;102842.98;1500176;95;21123;-52
2022/01/24 13:51:52;;;;;;;10.95;7.55;;;;;;;0.97;57.42;102842.45;1496778;95;21138;-52
2022/01/24 13:54:28;;;;;;;9.33;7.08;;;;;;;0.96;57.74;102836.44;1499057;95;21113;-52
2022/01/24 13:56:59;;;;;;;8.70;6.80;;;;;;;0.97;58.00;102842.02;1505782;95;21171;-52
2022/01/24 13:59:29;;;;;;;10.23;6.53;;;;;;;0.98;57.99;102836.11;1504906;95;21615;-52
2022/01/24 14:02:02;;;;;;;9.38;7.60;;;;;;;1.02;58.26;102839.30;1490952;95;21105;-53
2022/01/24 14:04:50;;;;;;;11.05;7.95;;;;;;;1.03;58.16;102851.73;1492877;94;21104;-53